Time;durP1;ratioP1;P1;durP2;ratioP2;P2;SDS_P1;SDS_P2;PMS_P1;PMS_P2;Temp;Humidity;BMP_temperature;BMP_pressure;BME280_temperature;BME280_humidity;BME280_pressure;Samples;Min_cycle;Max_cycle;Signal;HPM_P1;HPM_P2
2022/09/07 00:00:46;;;;;;;5.60;3.95;;;23.50;69.00;;;;;;5097411;28;20211;-85
2022/09/07 00:03:12;;;;;;;4.70;3.45;;;23.60;68.00;;;;;;5100058;28;20211;-85
2022/09/07 00:05:42;;;;;;;4.65;3.42;;;23.70;67.20;;;;;;5096071;28;20224;-85
2022/09/07 00:08:09;;;;;;;5.63;3.92;;;23.70;67.30;;;;;;5104957;28;20189;-85
2022/09/07 00:10:35;;;;;;;3.97;3.58;;;23.60;69.50;;;;;;5090504;28;20223;-86
2022/09/07 00:13:01;;;;;;;5.28;3.53;;;23.50;69.70;;;;;;5102999;28;20206;-85
2022/09/07 00:15:26;;;;;;;5.97;3.42;;;23.60;69.30;;;;;;5096964;28;20187;-85
2022/09/07 00:17:52;;;;;;;3.80;3.45;;;23.60;68.80;;;;;;5098253;28;20226;-86
2022/09/07 00:20:18;;;;;;;5.63;3.47;;;23.60;68.30;;;;;;5106307;28;20195;-85
2022/09/07 00:22:45;;;;;;;4.47;3.38;;;23.70;67.50;;;;;;5101438;28;20190;-85
2022/09/07 00:25:11;;;;;;;4.40;3.30;;;23.90;67.00;;;;;;5107429;28;20195;-85
2022/09/07 00:27:37;;;;;;;4.53;3.25;;;23.90;66.20;;;;;;5103345;28;20184;-85
2022/09/07 00:30:04;;;;;;;3.60;3.35;;;23.70;70.50;;;;;;5090513;28;20218;-85
2022/09/07 00:32:30;;;;;;;3.90;3.28;;;23.40;70.60;;;;;;5099208;28;20190;-85
2022/09/07 00:34:56;;;;;;;4.50;3.50;;;23.30;71.40;;;;;;5094999;28;20251;-85
2022/09/07 00:37:21;;;;;;;3.50;3.20;;;23.20;71.00;;;;;;5098022;28;20213;-85
2022/09/07 00:39:48;;;;;;;4.60;3.20;;;23.30;70.50;;;;;;5107396;28;20175;-84
2022/09/07 00:42:17;;;;;;;5.43;3.65;;;23.20;70.10;;;;;;5110563;28;20175;-85
2022/09/07 00:44:43;;;;;;;5.15;3.40;;;23.20;72.20;;;;;;5106838;28;20465;-85
2022/09/07 00:47:12;;;;;;;4.32;3.50;;;23.10;72.50;;;;;;5100163;28;20678;-85
2022/09/07 00:49:39;;;;;;;3.67;3.15;;;23.10;72.20;;;;;;5104540;28;20285;-85
2022/09/07 00:52:06;;;;;;;5.07;3.47;;;23.10;71.20;;;;;;5105854;28;20183;-85
2022/09/07 00:54:45;;;;;;;5.07;3.20;;;22.90;74.00;;;;;;5095022;28;20194;-85
2022/09/07 00:57:11;;;;;;;5.13;3.30;;;22.60;76.10;;;;;;5088098;28;20245;-85
2022/09/07 00:59:43;;;;;;;3.50;3.20;;;22.60;76.50;;;;;;5100424;28;20909;-85
2022/09/07 01:02:11;;;;;;;5.30;3.55;;;22.70;77.00;;;;;;5094465;28;20198;-85
2022/09/07 01:04:38;;;;;;;4.15;2.95;;;22.80;76.40;;;;;;5094647;28;20203;-85
2022/09/07 01:07:04;;;;;;;6.15;3.38;;;23.00;75.60;;;;;;5093438;28;20202;-85
2022/09/07 01:09:31;;;;;;;4.93;3.28;;;23.00;75.60;;;;;;5104325;28;20334;-85
2022/09/07 01:11:59;;;;;;;3.78;3.42;;;23.10;74.50;;;;;;5086766;28;20211;-85
2022/09/07 01:14:29;;;;;;;3.50;3.20;;;23.10;74.90;;;;;;5086317;28;20179;-85
2022/09/07 01:17:26;;;;;;;5.03;3.25;;;23.20;74.70;;;;;;5097506;28;20275;-85
2022/09/07 01:20:22;;;;;;;3.78;3.35;;;23.20;75.00;;;;;;5104691;28;20205;-86
2022/09/07 01:23:15;;;;;;;3.65;3.45;;;23.10;74.90;;;;;;5101460;28;20182;-85
2022/09/07 01:26:03;;;;;;;4.22;3.70;;;23.00;75.80;;;;;;5103934;28;20249;-85
2022/09/07 01:28:33;;;;;;;5.78;3.20;;;23.00;75.60;;;;;;5106403;28;20198;-85
2022/09/07 01:31:30;;;;;;;6.85;3.78;;;22.90;75.60;;;;;;5101544;28;20191;-85
2022/09/07 01:34:03;;;;;;;3.67;3.38;;;22.90;75.20;;;;;;5094945;28;20186;-85
2022/09/07 01:36:49;;;;;;;3.63;3.33;;;22.90;75.30;;;;;;5092533;28;20182;-86
2022/09/07 01:39:16;;;;;;;4.20;3.53;;;23.00;75.20;;;;;;5095910;28;20590;-85
2022/09/07 01:41:57;;;;;;;4.63;3.58;;;23.00;73.80;;;;;;5093920;28;20213;-85
2022/09/07 01:44:29;;;;;;;5.90;3.38;;;23.00;74.00;;;;;;5096265;28;20179;-85
2022/09/07 01:47:04;;;;;;;3.53;3.22;;;22.80;75.90;;;;;;5094431;28;20644;-85
2022/09/07 01:49:34;;;;;;;5.88;3.30;;;22.90;75.90;;;;;;5101470;28;20197;-85
2022/09/07 01:52:17;;;;;;;4.63;3.38;;;22.90;74.80;;;;;;5099475;28;20176;-85
2022/09/07 01:54:53;;;;;;;3.75;3.45;;;22.90;75.30;;;;;;5100461;28;20186;-85
2022/09/07 01:57:26;;;;;;;6.55;3.50;;;23.00;75.10;;;;;;5093651;28;20210;-85
2022/09/07 02:00:00;;;;;;;5.70;3.25;;;22.90;73.60;;;;;;5092999;28;20212;-85
2022/09/07 02:02:31;;;;;;;3.92;3.45;;;22.60;76.40;;;;;;5093513;28;20210;-85
2022/09/07 02:05:12;;;;;;;4.45;3.42;;;22.50;76.10;;;;;;5093888;28;20203;-86
2022/09/07 02:08:12;;;;;;;5.30;3.65;;;22.30;79.30;;;;;;5096289;28;20207;-85
2022/09/07 02:10:44;;;;;;;4.20;3.80;;;22.20;82.80;;;;;;5094297;28;20203;-85
2022/09/07 02:13:33;;;;;;;5.70;3.67;;;22.20;84.20;;;;;;5081185;28;20191;-85
2022/09/07 02:16:10;;;;;;;5.95;3.70;;;22.40;85.10;;;;;;5093753;28;20195;-85
2022/09/07 02:18:48;;;;;;;4.68;3.78;;;22.50;85.00;;;;;;5096424;28;20222;-85
2022/09/07 02:21:24;;;;;;;4.75;4.05;;;22.60;85.90;;;;;;5092443;28;20236;-85
2022/09/07 02:23:56;;;;;;;4.28;3.75;;;22.80;84.40;;;;;;5097545;28;20697;-85
2022/09/07 02:26:26;;;;;;;5.25;4.20;;;22.80;84.50;;;;;;5095513;28;20181;-85
2022/09/07 02:28:52;;;;;;;4.07;3.67;;;22.70;85.40;;;;;;5093033;28;20217;-85
2022/09/07 02:31:18;;;;;;;4.97;4.28;;;22.50;87.00;;;;;;5106620;28;20206;-84
2022/09/07 02:33:44;;;;;;;4.50;4.07;;;22.50;85.20;;;;;;5122342;28;20185;-84
2022/09/07 02:36:12;;;;;;;3.92;3.63;;;22.60;85.00;;;;;;5093590;28;20767;-85
2022/09/07 02:38:38;;;;;;;4.57;3.38;;;22.60;85.90;;;;;;5104093;28;20746;-85
2022/09/07 02:41:04;;;;;;;4.13;3.72;;;22.60;86.30;;;;;;5102276;28;20189;-85
2022/09/07 02:43:31;;;;;;;4.20;3.80;;;22.50;85.20;;;;;;5083510;28;20191;-85
2022/09/07 02:46:35;;;;;;;5.38;4.20;;;22.30;86.30;;;;;;5092855;28;20193;-84
2022/09/07 02:49:08;;;;;;;4.80;4.22;;;22.00;87.40;;;;;;5080282;28;20234;-85
2022/09/07 02:51:57;;;;;;;5.97;4.40;;;21.90;87.20;;;;;;5104115;28;20633;-85
2022/09/07 02:55:01;;;;;;;6.00;4.40;;;21.80;88.10;;;;;;5102571;28;20186;-85
2022/09/07 02:57:34;;;;;;;6.30;4.18;;;21.60;89.10;;;;;;5081339;28;20242;-85
2022/09/07 03:00:04;;;;;;;4.32;3.85;;;21.50;89.50;;;;;;5080072;28;20265;-85
2022/09/07 03:02:37;;;;;;;6.15;4.03;;;21.40;90.00;;;;;;5093147;28;20221;-85
2022/09/07 03:05:23;;;;;;;4.63;4.22;;;21.40;90.20;;;;;;5098202;28;20189;-86
2022/09/07 03:08:00;;;;;;;4.75;4.22;;;21.30;90.20;;;;;;5086946;28;20194;-85
2022/09/07 03:10:27;;;;;;;4.70;4.05;;;21.30;91.10;;;;;;5103071;28;20274;-85
2022/09/07 03:12:53;;;;;;;3.95;3.58;;;21.30;90.20;;;;;;5111180;28;20188;-85
2022/09/07 03:15:22;;;;;;;6.00;3.97;;;21.50;89.10;;;;;;5111816;28;20223;-85
2022/09/07 03:17:48;;;;;;;4.72;4.35;;;21.60;88.80;;;;;;5104450;28;20641;-85
2022/09/07 03:20:15;;;;;;;5.15;4.25;;;21.70;87.30;;;;;;5087650;28;20201;-85
2022/09/07 03:22:42;;;;;;;4.57;4.00;;;21.90;87.40;;;;;;5099259;28;20204;-85
2022/09/07 03:25:08;;;;;;;5.90;4.13;;;21.80;89.70;;;;;;5098957;28;20194;-85
2022/09/07 03:27:35;;;;;;;5.15;3.90;;;21.90;89.50;;;;;;5100934;28;20191;-85
2022/09/07 03:30:00;;;;;;;3.92;3.63;;;21.90;88.00;;;;;;5101091;28;20229;-84
2022/09/07 03:32:31;;;;;;;4.38;3.97;;;22.00;87.30;;;;;;5098598;28;20195;-85
2022/09/07 03:34:58;;;;;;;5.50;3.80;;;22.20;88.00;;;;;;5098128;28;20192;-85
2022/09/07 03:37:24;;;;;;;6.43;5.60;;;22.30;86.20;;;;;;5112669;28;20209;-85
2022/09/07 03:39:49;;;;;;;4.82;3.97;;;22.30;85.80;;;;;;5100142;28;20207;-85
2022/09/07 03:42:15;;;;;;;3.95;3.58;;;22.30;86.10;;;;;;5104302;28;20189;-85
2022/09/07 03:44:41;;;;;;;4.97;3.65;;;22.20;87.50;;;;;;5105285;28;20179;-85
2022/09/07 03:47:07;;;;;;;4.60;3.88;;;22.10;86.90;;;;;;5097176;28;20191;-85
2022/09/07 03:49:32;;;;;;;3.92;3.50;;;22.10;85.70;;;;;;5092352;28;20214;-85
2022/09/07 03:51:58;;;;;;;4.97;3.88;;;22.20;85.60;;;;;;5084714;28;20191;-85
2022/09/07 03:54:25;;;;;;;4.10;3.65;;;22.10;86.90;;;;;;5093583;28;20198;-85
2022/09/07 03:56:51;;;;;;;5.07;3.65;;;22.00;87.30;;;;;;5101298;28;20268;-85
2022/09/07 03:59:17;;;;;;;5.40;3.83;;;22.00;87.20;;;;;;5102224;28;20215;-85
2022/09/07 04:01:42;;;;;;;3.60;3.30;;;21.90;87.60;;;;;;5095459;28;20184;-85
2022/09/07 04:04:08;;;;;;;3.97;3.58;;;21.80;87.80;;;;;;5092920;28;20213;-85
2022/09/07 04:06:34;;;;;;;3.85;3.38;;;21.90;87.00;;;;;;5101415;28;20206;-85
2022/09/07 04:09:13;;;;;;;6.93;3.90;;;21.90;87.00;;;;;;5099826;28;20294;-85
2022/09/07 04:11:40;;;;;;;4.05;3.65;;;21.90;86.80;;;;;;5098546;28;20204;-85
2022/09/07 04:14:06;;;;;;;4.18;3.47;;;21.90;86.50;;;;;;5092248;28;20197;-85
2022/09/07 04:16:32;;;;;;;4.57;4.18;;;21.90;86.50;;;;;;5089949;28;20191;-85
2022/09/07 04:18:58;;;;;;;4.10;3.78;;;21.80;87.40;;;;;;5084252;28;20616;-86
2022/09/07 04:21:26;;;;;;;4.25;3.85;;;21.80;86.70;;;;;;5087539;28;20190;-85
2022/09/07 04:23:52;;;;;;;3.90;3.60;;;21.70;86.80;;;;;;5089365;28;20286;-85
2022/09/07 04:26:22;;;;;;;4.07;3.78;;;21.80;86.50;;;;;;5086847;28;20293;-86
2022/09/07 04:28:48;;;;;;;4.97;3.40;;;21.80;86.10;;;;;;5091540;28;20209;-85
2022/09/07 04:31:16;;;;;;;5.50;4.00;;;21.80;86.00;;;;;;5086895;28;20186;-86
2022/09/07 04:33:44;;;;;;;4.78;3.83;;;21.80;85.80;;;;;;5085906;28;20199;-85
2022/09/07 04:36:10;;;;;;;4.47;3.67;;;21.90;85.50;;;;;;5079143;28;20782;-85
2022/09/07 04:38:38;;;;;;;5.53;3.72;;;21.90;85.40;;;;;;5083296;28;20211;-85
2022/09/07 04:41:08;;;;;;;4.75;3.63;;;21.90;85.90;;;;;;5093369;28;20175;-85
2022/09/07 04:43:34;;;;;;;4.47;4.00;;;21.90;85.40;;;;;;5088247;28;20680;-85
2022/09/07 04:46:12;;;;;;;4.90;4.20;;;21.80;86.00;;;;;;5086242;28;20226;-85
2022/09/07 04:48:38;;;;;;;4.68;4.07;;;21.90;85.90;;;;;;5080152;28;20211;-85
2022/09/07 04:51:08;;;;;;;4.28;3.75;;;21.90;85.70;;;;;;5076139;28;20213;-86
2022/09/07 04:53:36;;;;;;;5.82;3.95;;;21.90;85.70;;;;;;5086319;28;20182;-85
2022/09/07 04:56:02;;;;;;;4.60;4.00;;;21.90;85.60;;;;;;5084643;28;20186;-85
2022/09/07 04:58:29;;;;;;;5.05;3.67;;;21.80;85.50;;;;;;5079221;28;20287;-85
2022/09/07 05:00:59;;;;;;;5.10;3.72;;;21.70;86.10;;;;;;5080787;28;20205;-85
2022/09/07 05:03:24;;;;;;;4.05;3.75;;;21.70;86.20;;;;;;5092977;28;20183;-85
2022/09/07 05:05:50;;;;;;;5.20;3.90;;;21.60;86.40;;;;;;5086064;28;20533;-85
2022/09/07 05:08:15;;;;;;;4.90;3.88;;;21.50;86.20;;;;;;5083744;28;20693;-86
2022/09/07 05:10:52;;;;;;;4.05;3.72;;;21.40;87.00;;;;;;5094172;28;20187;-85
2022/09/07 05:13:18;;;;;;;4.25;3.85;;;21.40;87.20;;;;;;5089478;28;20691;-85
2022/09/07 05:15:44;;;;;;;3.97;3.67;;;21.50;86.90;;;;;;5083195;28;20255;-85
2022/09/07 05:18:11;;;;;;;5.60;3.83;;;21.60;86.40;;;;;;5081430;28;20625;-85
2022/09/07 05:20:37;;;;;;;4.13;3.50;;;21.60;85.60;;;;;;5092039;28;20191;-86
2022/09/07 05:23:03;;;;;;;4.68;4.32;;;21.70;85.90;;;;;;5110669;28;20182;-85
2022/09/07 05:25:30;;;;;;;7.22;3.92;;;21.60;86.30;;;;;;5107367;28;20261;-86
2022/09/07 05:27:56;;;;;;;7.22;4.22;;;21.60;85.70;;;;;;5074310;28;20188;-85
2022/09/07 05:30:22;;;;;;;7.93;4.28;;;21.60;85.70;;;;;;5091266;28;20222;-85
2022/09/07 05:32:48;;;;;;;6.00;4.30;;;21.60;85.70;;;;;;5101209;28;20183;-85
2022/09/07 05:35:13;;;;;;;9.85;4.97;;;21.70;85.60;;;;;;5088121;28;20240;-84
2022/09/07 05:37:40;;;;;;;7.78;4.60;;;21.60;86.20;;;;;;5086348;28;20233;-85
2022/09/07 05:40:06;;;;;;;10.10;4.22;;;21.60;86.10;;;;;;5083970;28;20539;-85
2022/09/07 05:42:34;;;;;;;4.00;3.70;;;21.60;86.70;;;;;;5087524;28;20195;-85
2022/09/07 05:44:59;;;;;;;7.57;3.47;;;21.60;86.90;;;;;;5085307;28;20188;-85
2022/09/07 05:47:26;;;;;;;4.85;4.00;;;21.50;87.60;;;;;;5080219;28;20205;-85
2022/09/07 05:49:53;;;;;;;5.60;4.20;;;21.50;88.00;;;;;;5085708;28;20484;-85
2022/09/07 05:52:19;;;;;;;4.70;4.30;;;21.60;88.20;;;;;;5076729;28;20183;-85
2022/09/07 05:54:46;;;;;;;6.00;4.30;;;21.40;89.50;;;;;;5083907;28;20189;-86
2022/09/07 05:57:12;;;;;;;5.82;4.25;;;21.20;91.50;;;;;;5090553;28;20218;-85
2022/09/07 05:59:38;;;;;;;5.35;4.10;;;21.00;92.90;;;;;;5081620;28;20693;-85
2022/09/07 06:02:04;;;;;;;4.47;3.90;;;21.00;93.80;;;;;;5087472;28;20199;-85
2022/09/07 06:04:29;;;;;;;5.07;4.30;;;20.80;94.30;;;;;;5090113;28;20187;-85
2022/09/07 06:06:55;;;;;;;5.65;4.38;;;20.70;96.00;;;;;;5080781;28;20211;-85
2022/09/07 06:09:21;;;;;;;5.80;3.90;;;20.70;96.00;;;;;;5081464;28;20237;-85
2022/09/07 06:11:46;;;;;;;5.90;4.30;;;20.80;95.70;;;;;;5085984;28;20281;-85
2022/09/07 06:14:12;;;;;;;4.93;4.40;;;20.60;96.20;;;;;;5084126;28;20198;-85
2022/09/07 06:16:38;;;;;;;6.03;4.30;;;20.70;96.60;;;;;;5091063;28;20191;-85
2022/09/07 06:19:05;;;;;;;7.15;4.07;;;20.60;96.60;;;;;;5090690;28;20697;-85
2022/09/07 06:21:35;;;;;;;5.20;4.35;;;20.80;96.10;;;;;;5081993;28;20313;-86
2022/09/07 06:24:01;;;;;;;5.47;4.28;;;20.80;96.80;;;;;;5087282;28;20187;-84
2022/09/07 06:26:27;;;;;;;4.50;3.90;;;20.80;97.00;;;;;;5088630;28;20198;-85
2022/09/07 06:28:52;;;;;;;8.07;4.38;;;20.70;96.50;;;;;;5081238;28;20546;-84
2022/09/07 06:31:20;;;;;;;4.68;4.07;;;20.80;96.70;;;;;;5075531;28;20673;-85
2022/09/07 06:33:47;;;;;;;4.43;3.88;;;20.80;97.10;;;;;;5084629;28;20629;-85
2022/09/07 06:36:15;;;;;;;4.28;3.85;;;20.90;97.00;;;;;;5087965;28;20192;-84
2022/09/07 06:38:41;;;;;;;5.00;4.43;;;20.90;96.50;;;;;;5092517;28;20225;-85
2022/09/07 06:41:16;;;;;;;7.55;4.57;;;21.00;97.20;;;;;;5102843;28;20480;-84
2022/09/07 06:43:43;;;;;;;5.78;4.30;;;21.00;97.90;;;;;;5104132;28;20773;-84
2022/09/07 06:46:09;;;;;;;4.57;3.90;;;21.00;97.00;;;;;;5102190;28;20225;-86
2022/09/07 06:48:35;;;;;;;7.03;3.95;;;21.10;96.60;;;;;;5092387;28;20278;-83
2022/09/07 06:51:18;;;;;;;6.55;4.53;;;21.20;96.00;;;;;;5090694;28;20188;-84
2022/09/07 06:53:45;;;;;;;8.88;3.88;;;21.30;96.30;;;;;;5102800;28;20179;-84
2022/09/07 06:56:16;;;;;;;5.03;4.53;;;21.30;96.30;;;;;;5099661;28;20186;-84
2022/09/07 06:58:42;;;;;;;4.07;3.67;;;21.30;95.10;;;;;;5089248;28;20234;-85
2022/09/07 07:01:14;;;;;;;7.65;3.80;;;21.40;94.10;;;;;;5089270;28;20198;-85
2022/09/07 07:03:40;;;;;;;8.15;4.28;;;21.50;94.10;;;;;;5088384;28;20176;-85
2022/09/07 07:06:06;;;;;;;5.13;4.07;;;21.60;94.20;;;;;;5086395;28;20281;-85
2022/09/07 07:08:32;;;;;;;5.15;3.53;;;21.60;93.10;;;;;;5084332;28;20281;-84
2022/09/07 07:11:09;;;;;;;6.15;3.90;;;21.60;93.00;;;;;;5090525;28;20618;-85
2022/09/07 07:13:36;;;;;;;4.20;3.80;;;21.70;93.20;;;;;;5089461;28;20553;-85
2022/09/07 07:16:07;;;;;;;4.47;4.07;;;21.80;92.60;;;;;;5087137;28;20182;-84
2022/09/07 07:18:34;;;;;;;4.18;3.78;;;22.00;93.00;;;;;;5095934;28;20219;-84
2022/09/07 07:21:04;;;;;;;4.82;4.03;;;22.00;91.50;;;;;;5094799;28;20184;-85
2022/09/07 07:23:30;;;;;;;6.20;4.50;;;22.10;90.90;;;;;;5094078;28;20246;-84
2022/09/07 07:26:01;;;;;;;4.85;3.80;;;22.10;91.40;;;;;;5096967;28;20215;-85
2022/09/07 07:28:27;;;;;;;9.20;4.63;;;22.20;91.30;;;;;;5111923;28;20262;-85
2022/09/07 07:30:55;;;;;;;7.72;4.22;;;22.20;91.70;;;;;;5098842;28;20202;-85
2022/09/07 07:33:20;;;;;;;8.02;4.80;;;22.20;92.00;;;;;;5099472;28;20186;-85
2022/09/07 07:35:46;;;;;;;7.28;4.07;;;22.40;89.90;;;;;;5096844;28;20251;-86
2022/09/07 07:38:12;;;;;;;5.78;4.20;;;22.60;89.80;;;;;;5093800;28;20610;-85
2022/09/07 07:40:38;;;;;;;4.35;3.95;;;22.60;88.10;;;;;;5091724;28;20194;-85
2022/09/07 07:43:03;;;;;;;6.10;3.90;;;22.80;86.50;;;;;;5097228;28;20778;-85
2022/09/07 07:45:29;;;;;;;6.18;4.30;;;22.90;87.90;;;;;;5097929;28;20286;-85
2022/09/07 07:47:55;;;;;;;6.10;3.85;;;22.90;86.80;;;;;;5098326;28;20222;-84
2022/09/07 07:50:21;;;;;;;5.50;3.83;;;23.00;85.00;;;;;;5106451;28;20239;-85
2022/09/07 07:52:46;;;;;;;6.85;3.88;;;23.20;86.10;;;;;;5091957;28;20252;-85
2022/09/07 07:55:12;;;;;;;5.68;3.95;;;23.30;84.00;;;;;;5093833;28;20200;-85
2022/09/07 07:57:38;;;;;;;4.00;3.65;;;23.40;84.50;;;;;;5100513;28;20230;-85
2022/09/07 08:00:05;;;;;;;7.18;3.88;;;23.50;84.50;;;;;;5101714;28;20212;-85
2022/09/07 08:02:33;;;;;;;5.80;4.35;;;23.40;85.20;;;;;;5101207;28;20190;-85
2022/09/07 08:04:58;;;;;;;4.50;4.07;;;23.50;83.80;;;;;;5092339;28;20567;-85
2022/09/07 08:07:24;;;;;;;3.90;3.50;;;23.60;83.20;;;;;;5086731;28;20237;-85
2022/09/07 08:09:51;;;;;;;6.13;4.05;;;23.60;82.00;;;;;;5098878;28;20223;-85
2022/09/07 08:12:18;;;;;;;5.93;4.07;;;23.40;82.10;;;;;;5113787;28;20186;-85
2022/09/07 08:14:46;;;;;;;6.82;3.97;;;23.60;82.50;;;;;;5110484;28;20212;-85
2022/09/07 08:17:14;;;;;;;4.93;4.07;;;23.70;82.00;;;;;;5106322;28;20565;-85
2022/09/07 08:19:40;;;;;;;5.07;3.78;;;23.80;83.00;;;;;;5105576;28;20199;-85
2022/09/07 08:22:08;;;;;;;6.32;4.32;;;23.90;81.90;;;;;;5093400;28;20183;-85
2022/09/07 08:24:34;;;;;;;5.20;3.90;;;23.90;82.20;;;;;;5087924;28;20237;-85
2022/09/07 08:27:00;;;;;;;5.07;4.25;;;23.90;81.60;;;;;;5099042;28;20191;-85
2022/09/07 08:29:27;;;;;;;5.82;4.00;;;23.90;81.40;;;;;;5101207;28;20195;-85
2022/09/07 08:31:52;;;;;;;7.43;4.60;;;23.90;80.80;;;;;;5097576;28;20250;-85
2022/09/07 08:34:18;;;;;;;6.15;4.07;;;24.00;81.50;;;;;;5100257;28;20191;-85
2022/09/07 08:36:44;;;;;;;5.20;4.20;;;24.10;80.70;;;;;;5105482;28;20197;-85
2022/09/07 08:39:10;;;;;;;6.20;4.32;;;24.30;80.10;;;;;;5097597;28;20207;-85
2022/09/07 08:41:41;;;;;;;8.38;4.45;;;24.30;80.70;;;;;;5094988;28;20267;-85
2022/09/07 08:44:42;;;;;;;10.07;4.85;;;24.40;78.80;;;;;;5099260;28;20186;-85
2022/09/07 08:47:27;;;;;;;5.38;4.35;;;24.50;79.50;;;;;;5093133;28;20274;-85
2022/09/07 08:50:00;;;;;;;4.50;4.10;;;24.50;79.70;;;;;;5120265;28;20214;-85
2022/09/07 08:52:48;;;;;;;5.88;4.00;;;24.60;80.30;;;;;;5093482;28;20492;-85
2022/09/07 08:55:25;;;;;;;4.03;3.72;;;24.70;78.70;;;;;;5084963;28;20244;-85
2022/09/07 08:58:10;;;;;;;7.45;4.22;;;24.80;75.90;;;;;;5098446;28;20198;-85
2022/09/07 09:00:38;;;;;;;6.53;4.65;;;24.90;75.70;;;;;;5093403;28;20178;-85
2022/09/07 09:03:07;;;;;;;4.70;4.20;;;24.90;77.30;;;;;;5095420;28;20189;-84
2022/09/07 09:05:41;;;;;;;6.93;4.53;;;25.00;77.50;;;;;;5099138;28;20243;-84
2022/09/07 09:08:46;;;;;;;6.93;3.80;;;25.20;75.20;;;;;;5095940;28;20206;-85
2022/09/07 09:11:30;;;;;;;6.32;4.32;;;25.40;73.50;;;;;;5100057;28;20178;-85
2022/09/07 09:14:11;;;;;;;7.25;3.97;;;25.60;72.50;;;;;;5092305;28;20188;-85
2022/09/07 09:16:51;;;;;;;5.63;4.30;;;25.70;72.30;;;;;;5087833;28;20255;-85
2022/09/07 09:20:03;;;;;;;8.07;4.35;;;25.70;72.50;;;;;;5093367;28;20690;-86
2022/09/07 09:22:29;;;;;;;4.93;3.83;;;25.80;71.10;;;;;;5107477;28;20199;-86
2022/09/07 09:25:06;;;;;;;7.07;4.47;;;26.00;71.20;;;;;;5106190;28;20183;-85
2022/09/07 09:27:32;;;;;;;5.63;4.40;;;26.20;69.50;;;;;;5096666;28;20187;-85
2022/09/07 09:29:58;;;;;;;5.90;4.40;;;26.10;68.80;;;;;;5101621;28;20304;-85
2022/09/07 09:32:42;;;;;;;4.63;4.15;;;26.00;70.60;;;;;;5099311;28;20233;-85
2022/09/07 09:35:16;;;;;;;7.53;4.53;;;26.00;69.70;;;;;;5093791;28;20194;-85
2022/09/07 09:37:43;;;;;;;9.80;4.50;;;25.90;70.50;;;;;;5091861;28;20786;-85
2022/09/07 09:40:24;;;;;;;5.13;4.45;;;26.00;70.90;;;;;;5096650;28;20290;-86
2022/09/07 09:43:04;;;;;;;8.13;4.15;;;26.30;68.40;;;;;;5098541;28;20186;-85
2022/09/07 09:45:35;;;;;;;5.50;4.10;;;26.40;68.00;;;;;;5095644;28;20187;-85
2022/09/07 09:48:07;;;;;;;6.72;4.00;;;26.10;69.20;;;;;;5103464;28;20196;-86
2022/09/07 09:50:39;;;;;;;4.85;4.30;;;26.40;68.10;;;;;;5100360;28;20194;-85
2022/09/07 09:53:14;;;;;;;5.10;3.90;;;26.60;67.80;;;;;;5104640;28;20274;-86
2022/09/07 09:55:41;;;;;;;6.35;3.80;;;26.90;65.20;;;;;;5101211;28;20234;-86
2022/09/07 09:58:30;;;;;;;6.88;4.45;;;27.00;64.30;;;;;;5096135;28;20210;-85
2022/09/07 10:01:02;;;;;;;6.93;4.40;;;27.40;63.40;;;;;;5101989;28;20192;-85
2022/09/07 10:03:30;;;;;;;7.35;4.38;;;27.10;64.60;;;;;;5103552;28;20187;-86
2022/09/07 10:05:56;;;;;;;6.68;4.18;;;27.30;63.10;;;;;;5105664;28;20171;-85
2022/09/07 10:08:30;;;;;;;8.15;4.82;;;27.60;62.60;;;;;;5101684;28;20220;-85
2022/09/07 10:10:56;;;;;;;4.57;4.15;;;27.50;62.60;;;;;;5098356;28;20182;-85
2022/09/07 10:13:45;;;;;;;6.63;4.20;;;27.60;61.50;;;;;;5089170;28;20186;-85
2022/09/07 10:16:11;;;;;;;4.78;4.35;;;27.80;60.80;;;;;;5088709;28;20176;-85
2022/09/07 10:18:39;;;;;;;5.40;4.43;;;27.90;61.60;;;;;;5097549;28;20627;-86
2022/09/07 10:21:21;;;;;;;8.23;3.85;;;27.90;60.80;;;;;;5096874;28;20190;-85
2022/09/07 10:24:03;;;;;;;5.18;4.40;;;28.20;61.00;;;;;;5109566;28;20187;-85
2022/09/07 10:26:33;;;;;;;6.18;4.47;;;28.60;57.40;;;;;;5101028;28;20187;-83
2022/09/07 10:29:21;;;;;;;5.70;4.07;;;28.80;57.30;;;;;;5102200;28;20202;-85
2022/09/07 10:32:17;;;;;;;6.63;4.35;;;28.60;57.40;;;;;;5103283;28;20208;-85
2022/09/07 10:34:58;;;;;;;5.57;4.07;;;28.50;57.60;;;;;;5099793;28;20198;-85
2022/09/07 10:37:46;;;;;;;4.88;4.32;;;28.60;57.80;;;;;;5105880;28;20248;-85
2022/09/07 10:40:33;;;;;;;4.82;4.25;;;29.00;56.50;;;;;;5106402;28;20205;-85
2022/09/07 10:43:30;;;;;;;5.35;4.40;;;29.00;56.70;;;;;;5108971;28;20185;-84
2022/09/07 10:46:08;;;;;;;4.78;4.00;;;29.10;55.40;;;;;;5103814;28;20178;-84
2022/09/07 10:49:12;;;;;;;5.82;4.07;;;28.90;55.60;;;;;;5094894;28;20199;-85
2022/09/07 10:52:02;;;;;;;4.38;4.00;;;28.70;58.00;;;;;;5103883;28;20185;-85
2022/09/07 10:54:55;;;;;;;5.35;4.70;;;28.70;52.70;;;;;;5114180;28;20198;-84
2022/09/07 10:57:39;;;;;;;5.32;4.50;;;29.20;51.90;;;;;;5121361;28;20187;-83
2022/09/07 11:00:16;;;;;;;6.97;4.45;;;29.50;49.40;;;;;;5100299;28;20281;-85
2022/09/07 11:03:14;;;;;;;4.90;3.95;;;29.70;50.00;;;;;;5109493;28;20198;-85
2022/09/07 11:05:58;;;;;;;5.55;4.70;;;29.40;49.30;;;;;;5106457;28;20616;-85
2022/09/07 11:09:01;;;;;;;4.97;4.32;;;29.40;51.20;;;;;;5104062;28;20221;-85
2022/09/07 11:11:36;;;;;;;6.90;4.55;;;29.60;48.70;;;;;;5104292;28;20182;-85
2022/09/07 11:14:07;;;;;;;5.13;4.13;;;29.70;47.60;;;;;;5104029;28;20215;-86
2022/09/07 11:16:37;;;;;;;5.50;4.43;;;29.70;47.10;;;;;;5114054;28;20539;-86
2022/09/07 11:19:12;;;;;;;7.20;4.20;;;29.70;49.00;;;;;;5110328;28;20290;-86
2022/09/07 11:21:45;;;;;;;5.00;4.18;;;30.20;47.00;;;;;;5106488;28;20182;-85
2022/09/07 11:24:26;;;;;;;5.45;3.67;;;30.40;46.20;;;;;;5089458;28;20210;-85
2022/09/07 11:26:55;;;;;;;7.47;4.00;;;30.20;46.60;;;;;;5104346;28;20190;-85
2022/09/07 11:29:24;;;;;;;4.85;4.35;;;30.30;44.60;;;;;;5090993;28;20223;-85
2022/09/07 11:31:56;;;;;;;4.75;4.30;;;30.50;44.50;;;;;;5105563;28;20175;-85
2022/09/07 11:34:33;;;;;;;4.35;3.95;;;30.50;45.10;;;;;;5085753;28;20267;-86
2022/09/07 11:37:12;;;;;;;6.50;4.00;;;30.30;47.40;;;;;;5101735;28;20253;-85
2022/09/07 11:39:50;;;;;;;4.35;3.95;;;30.30;45.70;;;;;;5103939;28;20199;-85
2022/09/07 11:42:31;;;;;;;4.90;4.30;;;30.50;45.10;;;;;;5093566;28;20179;-85
2022/09/07 11:45:11;;;;;;;7.28;4.25;;;30.50;43.70;;;;;;5088003;28;20186;-84
2022/09/07 11:48:16;;;;;;;4.80;4.30;;;30.70;43.10;;;;;;5090914;28;20216;-85
2022/09/07 11:50:46;;;;;;;5.50;4.10;;;31.00;44.30;;;;;;5060029;28;20183;-86
2022/09/07 11:53:27;;;;;;;4.85;4.05;;;31.60;42.60;;;;;;5097052;28;20204;-85
2022/09/07 11:56:17;;;;;;;12.02;4.68;;;31.10;41.40;;;;;;5106695;28;20179;-85
2022/09/07 11:59:14;;;;;;;4.50;4.20;;;31.50;42.30;;;;;;5101764;28;20272;-87
2022/09/07 12:01:49;;;;;;;5.60;4.03;;;31.70;41.50;;;;;;5096891;28;20187;-85
2022/09/07 12:04:52;;;;;;;5.18;4.68;;;31.70;41.70;;;;;;5097466;28;20250;-86
2022/09/07 12:07:37;;;;;;;7.40;4.25;;;31.20;43.10;;;;;;5105823;28;20828;-85
2022/09/07 12:10:11;;;;;;;5.38;4.22;;;30.90;42.50;;;;;;5094388;28;20366;-84
2022/09/07 12:13:03;;;;;;;5.63;4.30;;;30.60;44.20;;;;;;5105515;28;20190;-86
2022/09/07 12:15:47;;;;;;;5.22;4.40;;;30.40;43.70;;;;;;5099091;28;20183;-86
2022/09/07 12:18:31;;;;;;;6.45;4.20;;;30.30;43.20;;;;;;5098635;28;20297;-84
2022/09/07 12:20:57;;;;;;;4.55;4.00;;;30.10;42.10;;;;;;5092982;28;20659;-86
2022/09/07 12:23:30;;;;;;;4.40;4.00;;;29.80;42.50;;;;;;5093982;28;20202;-85
2022/09/07 12:26:34;;;;;;;4.10;3.70;;;30.10;41.70;;;;;;5117539;28;20182;-85
2022/09/07 12:28:59;;;;;;;5.00;3.75;;;30.60;40.20;;;;;;5101498;28;20206;-85
2022/09/07 12:31:48;;;;;;;5.95;4.05;;;30.80;39.60;;;;;;5103797;28;20207;-84
2022/09/07 12:34:32;;;;;;;3.72;3.42;;;31.40;38.60;;;;;;5100299;28;20188;-85
2022/09/07 12:37:22;;;;;;;4.38;3.60;;;31.40;37.80;;;;;;5103481;28;20194;-86
2022/09/07 12:39:47;;;;;;;6.13;3.90;;;31.80;37.80;;;;;;5097607;28;20219;-85
2022/09/07 12:42:22;;;;;;;4.75;4.07;;;32.00;36.90;;;;;;5104095;28;20180;-85
2022/09/07 12:45:11;;;;;;;4.55;4.15;;;32.30;36.80;;;;;;5101452;28;20188;-86
2022/09/07 12:47:37;;;;;;;4.45;4.03;;;32.80;35.20;;;;;;5096346;28;20242;-86
2022/09/07 12:50:09;;;;;;;4.63;4.30;;;33.10;35.90;;;;;;5086337;28;20206;-86
2022/09/07 12:52:44;;;;;;;4.40;4.10;;;33.20;35.50;;;;;;5104837;28;20202;-85
2022/09/07 12:55:13;;;;;;;4.55;4.15;;;32.80;36.20;;;;;;5097232;28;20209;-85
2022/09/07 12:58:23;;;;;;;5.15;4.10;;;32.10;37.30;;;;;;5095065;28;20303;-85
2022/09/07 13:01:18;;;;;;;4.25;3.85;;;31.60;37.90;;;;;;5107838;28;20175;-85
2022/09/07 13:03:47;;;;;;;6.40;4.22;;;31.70;38.10;;;;;;5097966;28;20183;-86
2022/09/07 13:06:28;;;;;;;4.15;3.85;;;32.10;37.90;;;;;;5102122;28;20236;-85
2022/09/07 13:09:30;;;;;;;4.47;4.18;;;32.10;36.60;;;;;;5104555;28;20291;-85
2022/09/07 13:11:57;;;;;;;5.43;4.40;;;31.80;37.10;;;;;;5103046;28;20175;-84
2022/09/07 13:14:27;;;;;;;4.70;4.28;;;32.10;36.40;;;;;;5100684;28;20213;-85